createdAt,value
2022-10-26T00:01:14.902Z,2.67
2022-10-26T00:03:43.019Z,3.00
2022-10-26T00:06:11.372Z,2.83
2022-10-26T00:08:41.224Z,2.53
2022-10-26T00:11:08.380Z,2.63
2022-10-26T00:13:35.895Z,2.85
2022-10-26T00:16:08.961Z,2.92
2022-10-26T00:18:35.648Z,2.55
2022-10-26T00:21:06.305Z,3.30
2022-10-26T00:23:33.213Z,3.08
2022-10-26T00:26:00.048Z,3.08
2022-10-26T00:28:27.101Z,2.80
2022-10-26T00:30:53.831Z,2.97
2022-10-26T00:33:20.407Z,3.03
2022-10-26T00:35:56.301Z,2.72
2022-10-26T00:38:22.955Z,3.00
2022-10-26T00:40:49.790Z,3.00
2022-10-26T00:43:34.535Z,2.92
2022-10-26T00:46:03.073Z,3.13
2022-10-26T00:48:34.466Z,3.22
2022-10-26T00:51:08.324Z,3.10
2022-10-26T00:53:36.114Z,3.35
2022-10-26T00:56:03.165Z,3.30
2022-10-26T00:58:30.469Z,2.88
2022-10-26T01:00:56.966Z,3.30
2022-10-26T01:03:25.458Z,2.92
2022-10-26T01:05:55.626Z,3.35
2022-10-26T01:08:22.599Z,3.13
2022-10-26T01:10:49.236Z,3.67
2022-10-26T01:13:17.402Z,3.50
2022-10-26T01:15:55.692Z,3.40
2022-10-26T01:18:36.412Z,4.05
2022-10-26T01:21:02.819Z,4.03
2022-10-26T01:23:56.603Z,3.85
2022-10-26T01:29:45.187Z,4.35
2022-10-26T01:32:22.780Z,4.18
2022-10-26T01:34:58.607Z,4.40
2022-10-26T01:37:30.164Z,3.85
2022-10-26T01:40:06.346Z,4.30
2022-10-26T01:42:37.643Z,3.60
2022-10-26T01:45:08.289Z,3.97
2022-10-26T01:47:37.821Z,4.05
2022-10-26T01:50:06.077Z,3.28
2022-10-26T01:52:33.289Z,3.80
2022-10-26T01:55:37.332Z,3.78
2022-10-26T01:58:23.747Z,3.72
2022-10-26T02:01:15.491Z,3.30
2022-10-26T02:03:54.346Z,3.78
2022-10-26T02:06:48.739Z,3.20
2022-10-26T02:09:41.540Z,3.30
2022-10-26T02:12:19.966Z,3.38
2022-10-26T02:14:50.992Z,3.78
2022-10-26T02:17:53.889Z,3.35
2022-10-26T02:20:27.529Z,3.55
2022-10-26T02:22:55.830Z,3.72
2022-10-26T02:25:31.892Z,3.55
2022-10-26T02:28:07.452Z,3.30
2022-10-26T02:30:36.147Z,3.13
2022-10-26T02:33:05.458Z,3.50
2022-10-26T02:35:36.531Z,3.35
2022-10-26T02:38:07.273Z,3.85
2022-10-26T02:40:36.319Z,3.88
2022-10-26T02:43:12.588Z,3.75
2022-10-26T02:45:47.453Z,3.53
2022-10-26T02:48:15.236Z,3.95
2022-10-26T02:50:56.720Z,3.97
2022-10-26T02:53:33.161Z,4.55
2022-10-26T02:56:07.079Z,3.78
2022-10-26T02:58:40.326Z,3.38
2022-10-26T03:01:07.878Z,3.47
2022-10-26T03:03:34.754Z,3.50
2022-10-26T03:06:01.313Z,3.42
2022-10-26T03:10:59.629Z,3.40
2022-10-26T03:13:26.111Z,3.35
2022-10-26T03:15:56.594Z,3.22
2022-10-26T03:18:23.424Z,3.33
2022-10-26T03:20:49.871Z,3.00
2022-10-26T03:23:16.302Z,2.72
2022-10-26T03:25:42.851Z,3.30
2022-10-26T03:28:12.074Z,2.70
2022-10-26T03:30:38.728Z,3.10
2022-10-26T03:33:05.258Z,3.60
2022-10-26T03:35:32.037Z,3.65
2022-10-26T03:37:58.533Z,3.38
2022-10-26T03:40:25.107Z,3.25
2022-10-26T03:42:51.746Z,3.63
2022-10-26T03:45:18.536Z,3.42
2022-10-26T03:47:49.727Z,3.08
2022-10-26T03:50:18.765Z,3.00
2022-10-26T03:52:47.116Z,3.05
2022-10-26T03:55:14.267Z,2.85
2022-10-26T03:57:45.070Z,2.83
2022-10-26T04:00:17.258Z,3.08
2022-10-26T04:02:48.458Z,3.40
2022-10-26T04:05:16.642Z,3.75
2022-10-26T04:07:43.807Z,3.20
2022-10-26T04:10:10.612Z,3.30
2022-10-26T04:12:38.538Z,3.40
2022-10-26T04:15:07.154Z,3.40
2022-10-26T04:17:34.294Z,3.25
2022-10-26T04:20:00.941Z,3.10
2022-10-26T04:22:27.460Z,3.08
2022-10-26T04:24:53.914Z,3.60
2022-10-26T04:27:21.511Z,3.10
2022-10-26T04:29:48.120Z,3.70
2022-10-26T04:32:14.670Z,3.35
2022-10-26T04:34:41.202Z,3.38
2022-10-26T04:37:07.678Z,3.10
2022-10-26T04:39:34.223Z,3.30
2022-10-26T04:42:00.714Z,2.70
2022-10-26T04:44:27.258Z,2.80
2022-10-26T04:46:53.705Z,2.88
2022-10-26T04:49:20.182Z,2.90
2022-10-26T04:51:46.624Z,2.90
2022-10-26T04:54:13.179Z,3.20
2022-10-26T04:56:39.699Z,3.38
2022-10-26T04:59:06.164Z,2.67
2022-10-26T05:01:32.870Z,3.03
2022-10-26T05:03:59.497Z,3.03
2022-10-26T05:06:26.112Z,3.63
2022-10-26T05:08:52.560Z,2.90
2022-10-26T05:11:19.025Z,3.33
2022-10-26T05:13:48.260Z,3.10
2022-10-26T05:16:16.194Z,3.53
2022-10-26T05:18:42.662Z,3.30
2022-10-26T05:21:09.153Z,3.40
2022-10-26T05:23:35.602Z,3.33
2022-10-26T05:26:02.071Z,2.92
2022-10-26T05:28:28.512Z,3.40
2022-10-26T05:30:54.988Z,3.28
2022-10-26T05:33:21.450Z,3.35
2022-10-26T05:35:48.015Z,2.90
2022-10-26T05:38:16.890Z,3.08
2022-10-26T05:40:54.010Z,3.00
2022-10-26T05:43:23.966Z,3.03
2022-10-26T05:45:51.353Z,3.10
2022-10-26T05:48:17.841Z,3.20
2022-10-26T05:50:44.922Z,3.53
2022-10-26T05:53:11.622Z,3.60
2022-10-26T05:55:38.633Z,3.70
2022-10-26T05:58:11.298Z,3.75
2022-10-26T06:00:41.737Z,3.55
2022-10-26T06:03:14.316Z,3.70
2022-10-26T06:05:58.912Z,3.47
2022-10-26T06:08:28.709Z,3.10
2022-10-26T06:10:59.561Z,3.25
2022-10-26T06:13:26.366Z,3.10
2022-10-26T06:16:07.973Z,3.00
2022-10-26T06:19:12.353Z,2.50
2022-10-26T06:22:07.579Z,2.83
2022-10-26T06:24:41.997Z,3.03
2022-10-26T06:27:14.581Z,2.88
2022-10-26T06:30:02.286Z,2.88
2022-10-26T06:32:29.289Z,2.88
2022-10-26T06:35:19.123Z,3.30
2022-10-26T06:37:46.471Z,2.42
2022-10-26T06:40:16.177Z,3.05
2022-10-26T06:42:43.724Z,2.60
2022-10-26T06:45:15.579Z,2.65
2022-10-26T06:47:54.838Z,4.57
2022-10-26T06:50:34.577Z,3.40
2022-10-26T06:53:21.676Z,3.17
2022-10-26T06:55:50.452Z,2.97
2022-10-26T06:58:27.760Z,2.70
2022-10-26T07:00:55.997Z,2.30
2022-10-26T07:03:22.646Z,2.65
2022-10-26T07:05:49.702Z,2.70
2022-10-26T07:08:16.238Z,2.50
2022-10-26T07:10:43.559Z,2.45
2022-10-26T07:13:11.122Z,2.70
2022-10-26T07:15:39.061Z,2.60
2022-10-26T07:18:06.833Z,2.50
2022-10-26T07:20:38.567Z,2.40
2022-10-26T07:23:11.042Z,3.05
2022-10-26T07:25:40.182Z,2.63
2022-10-26T07:28:10.133Z,2.67
2022-10-26T07:30:37.936Z,2.97
2022-10-26T07:33:10.215Z,2.97
2022-10-26T07:35:36.748Z,2.42
2022-10-26T07:38:04.421Z,2.40
2022-10-26T07:40:31.303Z,2.58
2022-10-26T07:42:59.450Z,2.33
2022-10-26T07:45:27.404Z,2.80
2022-10-26T07:47:57.173Z,2.60
2022-10-26T07:50:24.344Z,2.60
2022-10-26T07:52:51.195Z,2.65
2022-10-26T07:55:19.168Z,2.90
2022-10-26T07:57:47.541Z,2.75
2022-10-26T08:00:17.540Z,3.10
2022-10-26T08:02:44.056Z,3.45
2022-10-26T08:05:10.580Z,3.28
2022-10-26T08:07:46.832Z,2.70
2022-10-26T08:10:14.913Z,2.67
2022-10-26T08:12:43.236Z,3.00
2022-10-26T08:15:10.344Z,2.65
2022-10-26T08:17:36.877Z,2.80
2022-10-26T08:20:03.638Z,2.85
2022-10-26T08:22:30.878Z,2.83
2022-10-26T08:24:57.546Z,2.80
2022-10-26T08:27:24.033Z,3.05
2022-10-26T08:29:50.474Z,2.90
2022-10-26T08:32:16.991Z,3.20
2022-10-26T08:34:43.441Z,2.88
2022-10-26T08:37:09.960Z,2.60
2022-10-26T08:39:36.438Z,3.17
2022-10-26T08:42:11.364Z,2.45
2022-10-26T08:44:47.123Z,2.30
2022-10-26T08:50:01.582Z,2.80
2022-10-26T08:52:38.527Z,2.90
2022-10-26T08:55:15.022Z,2.70
2022-10-26T08:57:42.653Z,2.38
2022-10-26T09:00:18.042Z,2.30
2022-10-26T09:02:44.689Z,2.50
2022-10-26T09:05:17.700Z,2.22
2022-10-26T09:08:01.047Z,2.20
2022-10-26T09:10:33.289Z,2.70
2022-10-26T09:13:32.822Z,2.45
2022-10-26T09:16:05.244Z,2.38
2022-10-26T09:18:43.022Z,2.28
2022-10-26T09:21:47.839Z,2.40
2022-10-26T09:24:22.118Z,2.15
2022-10-26T09:27:11.772Z,2.13
2022-10-26T09:29:43.256Z,2.08
2022-10-26T09:32:21.131Z,2.03
2022-10-26T09:34:55.135Z,2.13
2022-10-26T09:37:26.670Z,2.25
2022-10-26T09:40:04.088Z,2.22
2022-10-26T09:43:13.830Z,2.00
2022-10-26T09:45:47.278Z,1.65
2022-10-26T09:48:27.873Z,1.90
2022-10-26T09:50:54.550Z,2.03
2022-10-26T09:53:21.810Z,1.90
2022-10-26T09:55:51.078Z,1.77
2022-10-26T09:58:23.541Z,2.10
2022-10-26T10:00:51.669Z,1.90
2022-10-26T10:03:29.718Z,1.98
2022-10-26T10:06:18.630Z,1.80
2022-10-26T10:09:05.166Z,2.00
2022-10-26T10:11:59.295Z,1.92
2022-10-26T10:14:39.953Z,1.85
2022-10-26T10:19:47.279Z,1.88
2022-10-26T10:22:19.965Z,1.88
2022-10-26T10:25:00.723Z,1.83
2022-10-26T10:27:30.040Z,1.95
2022-10-26T10:30:01.642Z,2.13
2022-10-26T10:32:35.751Z,1.83
2022-10-26T10:35:23.830Z,1.85
2022-10-26T10:37:51.372Z,2.00
2022-10-26T10:40:26.579Z,1.90
2022-10-26T10:43:02.763Z,2.10
2022-10-26T10:45:31.215Z,1.73
2022-10-26T10:48:04.608Z,1.98
2022-10-26T10:50:36.609Z,1.58
2022-10-26T10:53:23.617Z,2.40
2022-10-26T10:56:14.954Z,1.83
2022-10-26T10:58:44.345Z,1.77
2022-10-26T11:01:14.631Z,1.40
2022-10-26T11:04:20.971Z,1.50
2022-10-26T11:06:49.542Z,2.40
2022-10-26T11:09:21.927Z,2.30
2022-10-26T11:11:58.106Z,2.83
2022-10-26T11:14:37.525Z,2.65
2022-10-26T11:17:16.861Z,2.08
2022-10-26T11:19:54.101Z,1.67
2022-10-26T11:22:25.853Z,1.38
2022-10-26T11:25:12.213Z,1.02
2022-10-26T11:28:14.343Z,1.02
2022-10-26T11:30:56.338Z,1.20
2022-10-26T11:33:27.707Z,1.75
2022-10-26T11:36:11.032Z,1.23
2022-10-26T11:38:46.583Z,1.23
2022-10-26T11:41:52.740Z,1.10
2022-10-26T11:44:30.239Z,1.08
2022-10-26T11:47:09.837Z,0.80
2022-10-26T11:49:53.810Z,0.93
2022-10-26T11:52:25.138Z,1.00
2022-10-26T11:54:56.945Z,1.23
2022-10-26T11:57:25.698Z,1.15
2022-10-26T12:00:00.758Z,1.35
2022-10-26T12:02:27.771Z,1.30
2022-10-26T12:05:11.298Z,1.33
2022-10-26T12:07:40.493Z,0.90
2022-10-26T12:10:14.520Z,1.17
2022-10-26T12:12:45.477Z,1.80
2022-10-26T12:16:01.833Z,1.40
2022-10-26T12:18:57.950Z,1.00
2022-10-26T12:21:33.781Z,1.10
2022-10-26T12:24:23.421Z,1.17
2022-10-26T12:26:55.528Z,0.98
2022-10-26T12:29:29.619Z,0.82
2022-10-26T12:31:56.209Z,0.80
2022-10-26T12:34:45.366Z,0.95
2022-10-26T12:37:30.195Z,0.90
2022-10-26T12:40:32.374Z,1.00
2022-10-26T12:43:19.051Z,1.17
2022-10-26T12:45:47.696Z,0.90
2022-10-26T12:48:41.218Z,1.00
2022-10-26T12:51:22.455Z,1.27
2022-10-26T12:53:57.650Z,1.17
2022-10-26T12:56:42.489Z,1.15
2022-10-26T12:59:39.699Z,1.20
2022-10-26T13:02:30.537Z,1.55
2022-10-26T13:05:16.387Z,3.72
2022-10-26T13:07:43.179Z,1.63
2022-10-26T13:10:12.383Z,1.52
2022-10-26T13:12:50.443Z,1.27
2022-10-26T13:15:19.826Z,1.75
2022-10-26T13:17:54.298Z,1.45
2022-10-26T13:20:20.847Z,1.77
2022-10-26T13:22:48.366Z,1.60
2022-10-26T13:26:01.013Z,1.75
2022-10-26T13:28:39.912Z,1.45
2022-10-26T13:31:34.329Z,1.90
2022-10-26T13:34:09.774Z,2.08
2022-10-26T13:36:44.357Z,1.40
2022-10-26T13:39:18.227Z,1.60
2022-10-26T13:41:47.641Z,1.58
2022-10-26T13:44:23.795Z,2.20
2022-10-26T13:46:58.290Z,1.70
2022-10-26T13:49:33.826Z,1.65
2022-10-26T13:52:03.734Z,1.80
2022-10-26T13:54:43.010Z,1.80
2022-10-26T13:57:34.033Z,1.95
2022-10-26T14:00:11.297Z,2.08
2022-10-26T14:02:41.988Z,1.90
2022-10-26T14:05:14.500Z,1.90
2022-10-26T14:07:45.881Z,2.28
2022-10-26T14:10:31.885Z,2.45
2022-10-26T14:12:59.087Z,2.10
2022-10-26T14:15:30.946Z,2.10
2022-10-26T14:20:27.579Z,2.53
2022-10-26T14:22:54.220Z,2.22
2022-10-26T14:25:42.236Z,2.33
2022-10-26T14:28:26.824Z,2.00
2022-10-26T14:30:53.567Z,2.30
2022-10-26T14:33:27.349Z,2.13
2022-10-26T14:35:54.489Z,1.92
2022-10-26T14:38:27.051Z,2.17
2022-10-26T14:40:57.478Z,2.78
2022-10-26T14:43:25.851Z,1.95
2022-10-26T14:45:54.302Z,2.28
2022-10-26T14:48:32.524Z,2.03
2022-10-26T14:51:11.278Z,2.97
2022-10-26T14:53:47.457Z,2.20
2022-10-26T14:56:26.468Z,1.95
2022-10-26T14:58:53.465Z,2.47
2022-10-26T15:01:23.301Z,3.00
2022-10-26T15:04:04.756Z,2.70
2022-10-26T15:06:42.447Z,2.47
2022-10-26T15:09:30.809Z,2.00
2022-10-26T15:11:57.444Z,2.40
2022-10-26T15:14:23.986Z,2.42
2022-10-26T15:16:54.430Z,2.28
2022-10-26T15:19:24.046Z,2.63
2022-10-26T15:21:51.881Z,2.42
2022-10-26T15:24:21.423Z,2.30
2022-10-26T15:26:48.294Z,2.40
2022-10-26T15:29:38.630Z,2.33
2022-10-26T15:32:27.007Z,2.60
2022-10-26T15:35:27.742Z,2.63
2022-10-26T15:37:55.660Z,2.33
2022-10-26T15:40:23.774Z,2.33
2022-10-26T15:42:54.477Z,2.22
2022-10-26T15:45:27.216Z,2.70
2022-10-26T15:47:56.678Z,2.65
2022-10-26T15:50:25.776Z,2.53
2022-10-26T15:53:01.060Z,2.30
2022-10-26T15:55:29.095Z,2.40
2022-10-26T15:57:56.054Z,2.72
2022-10-26T16:00:22.741Z,3.03
2022-10-26T16:02:49.259Z,2.40
2022-10-26T16:05:16.906Z,2.50
2022-10-26T16:07:45.230Z,2.53
2022-10-26T16:10:22.569Z,2.78
2022-10-26T16:12:50.248Z,2.75
2022-10-26T16:15:22.418Z,2.70
2022-10-26T16:17:49.723Z,2.65
2022-10-26T16:20:22.917Z,2.65
2022-10-26T16:22:51.755Z,2.88
2022-10-26T16:25:24.854Z,3.13
2022-10-26T16:27:53.174Z,5.10
2022-10-26T16:30:21.416Z,4.50
2022-10-26T16:32:48.465Z,3.30
2022-10-26T16:35:15.564Z,3.03
2022-10-26T16:37:42.475Z,3.20
2022-10-26T16:40:09.717Z,3.13
2022-10-26T16:42:36.474Z,3.08
2022-10-26T16:45:03.391Z,2.80
2022-10-26T16:47:35.562Z,3.35
2022-10-26T16:50:03.167Z,3.35
2022-10-26T16:52:29.735Z,3.40
2022-10-26T16:54:56.827Z,3.33
2022-10-26T16:57:23.310Z,3.40
2022-10-26T16:59:49.752Z,3.40
2022-10-26T17:02:16.355Z,3.22
2022-10-26T17:04:42.943Z,3.08
2022-10-26T17:07:10.999Z,3.22
2022-10-26T17:09:37.779Z,3.50
2022-10-26T17:12:04.875Z,3.33
2022-10-26T17:14:32.021Z,3.67
2022-10-26T17:16:58.924Z,3.15
2022-10-26T17:19:25.518Z,3.22
2022-10-26T17:21:51.993Z,3.60
2022-10-26T17:24:19.098Z,3.70
2022-10-26T17:26:45.581Z,3.30
2022-10-26T17:29:15.113Z,3.10
2022-10-26T17:31:41.651Z,3.00
2022-10-26T17:34:08.631Z,3.20
2022-10-26T17:36:35.139Z,3.55
2022-10-26T17:39:01.665Z,3.03
2022-10-26T17:41:31.743Z,3.35
2022-10-26T17:43:58.251Z,3.70
2022-10-26T17:46:26.181Z,3.38
2022-10-26T17:48:57.317Z,3.50
2022-10-26T17:51:25.105Z,3.58
2022-10-26T17:53:51.756Z,3.22
2022-10-26T17:56:20.916Z,3.33
2022-10-26T17:58:58.715Z,3.45
2022-10-26T18:01:26.103Z,3.50
2022-10-26T18:03:53.288Z,3.75
2022-10-26T18:06:20.480Z,3.53
2022-10-26T18:08:47.185Z,4.47
2022-10-26T18:11:19.058Z,4.18
2022-10-26T18:13:47.380Z,3.55
2022-10-26T18:16:19.278Z,3.40
2022-10-26T18:21:18.919Z,3.40
2022-10-26T18:23:46.429Z,3.50
2022-10-26T18:26:21.609Z,3.53
2022-10-26T18:28:48.276Z,3.38
2022-10-26T18:31:17.362Z,3.35
2022-10-26T18:33:43.875Z,3.15
2022-10-26T18:36:17.945Z,3.20
2022-10-26T18:38:46.648Z,3.30
2022-10-26T18:41:14.972Z,3.35
2022-10-26T18:43:43.354Z,2.90
2022-10-26T18:46:11.066Z,3.20
2022-10-26T18:48:38.182Z,3.30
2022-10-26T18:51:09.505Z,3.35
2022-10-26T18:53:37.437Z,3.15
2022-10-26T18:56:06.977Z,3.10
2022-10-26T18:58:35.793Z,3.45
2022-10-26T19:01:16.139Z,2.80
2022-10-26T19:03:43.478Z,2.58
2022-10-26T19:06:18.680Z,2.80
2022-10-26T19:08:46.063Z,2.95
2022-10-26T19:11:17.303Z,3.22
2022-10-26T19:13:44.110Z,2.83
2022-10-26T19:16:33.540Z,3.70
2022-10-26T19:21:32.539Z,3.42
2022-10-26T19:24:01.160Z,2.90
2022-10-26T19:26:34.598Z,3.20
2022-10-26T19:29:06.017Z,3.10
2022-10-26T19:31:36.625Z,3.15
2022-10-26T19:34:06.511Z,2.85
2022-10-26T19:36:33.908Z,2.88
2022-10-26T19:39:00.656Z,2.75
2022-10-26T19:41:28.142Z,2.83
2022-10-26T19:43:55.894Z,3.33
2022-10-26T19:46:25.324Z,2.95
2022-10-26T19:48:57.862Z,2.67
2022-10-26T19:51:26.230Z,2.70
2022-10-26T19:53:57.963Z,3.10
2022-10-26T19:56:27.345Z,3.30
2022-10-26T19:58:54.253Z,3.38
2022-10-26T20:01:20.912Z,2.97
2022-10-26T20:03:49.428Z,3.20
2022-10-26T20:06:21.524Z,3.03
2022-10-26T20:08:49.157Z,3.30
2022-10-26T20:11:19.734Z,2.70
2022-10-26T20:13:49.857Z,2.72
2022-10-26T20:16:17.689Z,3.10
2022-10-26T20:18:47.897Z,2.78
2022-10-26T20:21:16.641Z,3.08
2022-10-26T20:23:44.132Z,2.60
2022-10-26T20:26:18.152Z,3.05
2022-10-26T20:28:53.230Z,2.70
2022-10-26T20:31:19.924Z,2.47
2022-10-26T20:33:50.536Z,2.65
2022-10-26T20:36:17.027Z,2.65
2022-10-26T20:38:43.774Z,2.30
2022-10-26T20:41:14.696Z,2.20
2022-10-26T20:43:41.835Z,2.60
2022-10-26T20:46:23.507Z,2.22
2022-10-26T20:48:51.226Z,2.50
2022-10-26T20:51:37.557Z,2.40
2022-10-26T20:54:11.854Z,2.45
2022-10-26T20:56:43.411Z,2.38
2022-10-26T20:59:36.680Z,2.45
2022-10-26T21:02:04.331Z,2.42
2022-10-26T21:04:30.986Z,2.05
2022-10-26T21:06:57.460Z,2.42
2022-10-26T21:09:23.908Z,2.17
2022-10-26T21:11:58.234Z,2.40
2022-10-26T21:14:24.830Z,2.20
2022-10-26T21:16:51.398Z,2.33
2022-10-26T21:19:19.266Z,2.38
2022-10-26T21:21:46.113Z,2.90
2022-10-26T21:24:12.722Z,2.53
2022-10-26T21:26:39.208Z,2.50
2022-10-26T21:29:05.684Z,1.80
2022-10-26T21:31:32.967Z,2.45
2022-10-26T21:33:59.444Z,2.20
2022-10-26T21:36:32.796Z,2.20
2022-10-26T21:38:59.476Z,2.67
2022-10-26T21:41:25.948Z,2.38
2022-10-26T21:44:03.296Z,2.40
2022-10-26T21:46:37.957Z,2.78
2022-10-26T21:49:08.231Z,2.33
2022-10-26T21:51:35.485Z,2.55
2022-10-26T21:54:03.038Z,2.58
2022-10-26T21:56:29.571Z,2.70
2022-10-26T21:58:56.080Z,2.50
2022-10-26T22:01:23.213Z,2.60
2022-10-26T22:03:52.919Z,2.60
2022-10-26T22:06:21.485Z,2.67
2022-10-26T22:08:48.217Z,2.15
2022-10-26T22:11:20.573Z,2.58
2022-10-26T22:13:50.432Z,2.50
2022-10-26T22:16:24.726Z,2.75
2022-10-26T22:18:53.489Z,2.67
2022-10-26T22:21:21.836Z,2.30
2022-10-26T22:23:48.305Z,2.80
2022-10-26T22:26:20.415Z,2.15
2022-10-26T22:28:49.497Z,2.05
2022-10-26T22:31:22.637Z,2.25
2022-10-26T22:33:58.511Z,2.22
2022-10-26T22:36:26.756Z,2.13
2022-10-26T22:38:53.664Z,2.47
2022-10-26T22:41:21.882Z,2.58
2022-10-26T22:43:52.151Z,2.40
2022-10-26T22:46:22.661Z,2.50
2022-10-26T22:49:00.526Z,2.42
2022-10-26T22:51:30.818Z,2.65
2022-10-26T22:54:00.802Z,2.35
2022-10-26T22:56:28.759Z,2.60
2022-10-26T22:58:55.440Z,2.70
2022-10-26T23:01:30.471Z,2.60
2022-10-26T23:03:57.199Z,2.65
2022-10-26T23:06:25.454Z,3.20
2022-10-26T23:08:52.015Z,3.00
2022-10-26T23:11:20.229Z,2.92
2022-10-26T23:13:47.185Z,3.13
2022-10-26T23:16:16.438Z,3.25
2022-10-26T23:18:42.963Z,2.63
2022-10-26T23:21:11.037Z,2.90
2022-10-26T23:24:47.040Z,2.67
2022-10-26T23:27:13.927Z,2.95
2022-10-26T23:32:10.982Z,2.90
2022-10-26T23:34:37.828Z,2.88
2022-10-26T23:37:04.319Z,3.15
2022-10-26T23:39:30.880Z,2.60
2022-10-26T23:41:57.560Z,2.72
2022-10-26T23:44:23.994Z,2.80
2022-10-26T23:46:50.504Z,2.78
2022-10-26T23:49:17.004Z,2.80
2022-10-26T23:51:43.501Z,3.08
2022-10-26T23:54:09.951Z,2.90
2022-10-26T23:56:36.497Z,2.80
2022-10-26T23:59:10.355Z,2.88
